Aviation Digital Data Service (ADDS)

Output produced by METARs form (0119 UTC 06 December 2019)
found at http://www.aviationweather.gov/metar/data/
 
Forecast for: KTRK (TRUCKEE TAHOE , CA, US)
Text: KTRK 052320Z 0600/0624 VRB03KT P6SM SKC
Forecast period: 0000 to 0600 UTC 06 December 2019
Forecast type: FROM: standard forecast or significant change
Winds: variable direction winds at 3 MPH (3 knots; 1.5 m/s)
Visibility: 6 or more miles 10+ km)
Clouds: clear skies
Weather: no significant weather forecast for this period
Text: FM060600 00000KT 1/4SM FZFG OVC003
Forecast period: 0600 to 2200 UTC 06 December 2019
Forecast type: FROM: standard forecast or significant change
Winds: calm
Visibility: 0.25 miles (0.40 km)
Ceiling: 300 feet AGL
Clouds: overcast cloud deck at 300 feet AGL
Weather: FZFG  (freezing fog)
Text: FM062200 19006KT P6SM SCT080 BKN200
Forecast period: 2200 UTC 06 December 2019 to 0000 UTC 07 December 2019
Forecast type: FROM: standard forecast or significant change
Winds: from the S (190 degrees) at 7 MPH (6 knots; 3.1 m/s)
Visibility: 6 or more miles 10+ km)
Ceiling: 20000 feet AGL
Clouds: scattered clouds at 8000 feet AGL
broken clouds at 20000 feet AGL
Weather: no significant weather forecast for this period